createdAt,value
2019-02-10T00:00:59.400Z,6.40
2019-02-10T00:03:30.547Z,6.40
2019-02-10T00:06:01.756Z,6.40
2019-02-10T00:08:32.838Z,6.50
2019-02-10T00:11:04.036Z,6.60
2019-02-10T00:13:36.661Z,6.50
2019-02-10T00:16:26.844Z,6.50
2019-02-10T00:18:57.949Z,6.40
2019-02-10T00:21:29.115Z,6.40
2019-02-10T00:24:00.257Z,6.40
2019-02-10T00:26:31.472Z,6.30
2019-02-10T00:29:03.705Z,6.30
2019-02-10T00:31:34.781Z,6.30
2019-02-10T00:34:06.031Z,6.30
2019-02-10T00:36:37.124Z,6.30
2019-02-10T00:39:11.168Z,6.20
2019-02-10T00:41:42.345Z,6.20
2019-02-10T00:44:13.496Z,6.20
2019-02-10T00:46:44.640Z,6.20
2019-02-10T00:49:15.759Z,6.20
2019-02-10T00:51:46.895Z,6.20
2019-02-10T00:54:18.098Z,6.20
2019-02-10T00:56:49.287Z,6.10
2019-02-10T00:59:20.413Z,6.10
2019-02-10T01:01:51.516Z,6.10
2019-02-10T01:04:22.666Z,6.10
2019-02-10T01:06:53.728Z,6.10
2019-02-10T01:09:24.846Z,6.20
2019-02-10T01:11:55.972Z,6.20
2019-02-10T01:14:27.135Z,6.10
2019-02-10T01:16:58.231Z,6.10
2019-02-10T01:19:29.383Z,6.00
2019-02-10T01:22:00.497Z,6.00
2019-02-10T01:25:23.920Z,5.90
2019-02-10T01:27:58.321Z,5.80
2019-02-10T01:30:44.380Z,5.70
2019-02-10T01:33:38.413Z,5.60
2019-02-10T01:36:19.171Z,5.60
2019-02-10T01:42:14.750Z,5.60
2019-02-10T01:44:51.412Z,5.50
2019-02-10T01:47:33.874Z,5.40
2019-02-10T01:50:16.987Z,5.30
2019-02-10T01:52:52.356Z,5.20
2019-02-10T01:55:27.124Z,5.00
2019-02-10T01:58:00.707Z,5.00
2019-02-10T02:00:38.252Z,4.90
2019-02-10T02:03:18.767Z,4.80
2019-02-10T02:05:50.155Z,4.70
2019-02-10T02:08:36.409Z,4.70
2019-02-10T02:11:16.141Z,4.60
2019-02-10T02:13:56.813Z,4.50
2019-02-10T02:16:39.588Z,4.50
2019-02-10T02:25:25.444Z,4.30
2019-02-10T02:28:19.052Z,4.30
2019-02-10T02:31:06.662Z,4.20
2019-02-10T02:33:41.858Z,4.10
2019-02-10T02:36:28.172Z,4.10
2019-02-10T02:39:11.961Z,4.00
2019-02-10T02:41:49.043Z,4.00
2019-02-10T02:45:16.010Z,4.00
2019-02-10T02:47:53.057Z,4.00
2019-02-10T02:50:49.124Z,4.00
2019-02-10T02:53:38.688Z,4.00
2019-02-10T02:56:21.312Z,4.00
2019-02-10T02:59:04.865Z,4.00
2019-02-10T03:01:39.345Z,4.10
2019-02-10T03:04:17.188Z,4.10
2019-02-10T03:06:58.057Z,4.10
2019-02-10T03:09:36.019Z,4.10
2019-02-10T03:12:19.930Z,4.10
2019-02-10T03:15:01.591Z,4.10
2019-02-10T03:17:46.724Z,4.00
2019-02-10T03:21:02.714Z,4.00
2019-02-10T03:23:35.659Z,4.00
2019-02-10T03:26:24.204Z,4.00
2019-02-10T03:29:01.026Z,3.90
2019-02-10T03:31:36.470Z,3.80
2019-02-10T03:34:12.122Z,3.70
2019-02-10T03:36:46.274Z,3.70
2019-02-10T03:39:17.447Z,3.60
2019-02-10T03:41:48.601Z,3.50
2019-02-10T03:44:19.639Z,3.30
2019-02-10T03:46:50.758Z,3.20
2019-02-10T03:49:22.215Z,3.20
2019-02-10T03:51:53.363Z,3.10
2019-02-10T03:54:24.450Z,3.00
2019-02-10T03:56:56.671Z,3.00
2019-02-10T03:59:27.768Z,3.00
2019-02-10T04:01:58.840Z,2.90
2019-02-10T04:04:29.986Z,2.90
2019-02-10T04:07:01.295Z,2.90
2019-02-10T04:09:32.438Z,2.90
2019-02-10T04:12:03.510Z,2.90
2019-02-10T04:14:34.631Z,3.00
2019-02-10T04:17:05.725Z,3.00
2019-02-10T04:19:36.839Z,3.00
2019-02-10T04:22:14.247Z,3.10
2019-02-10T04:24:46.690Z,3.10
2019-02-10T04:27:17.796Z,3.00
2019-02-10T04:29:48.961Z,3.00
2019-02-10T04:32:20.025Z,2.80
2019-02-10T04:34:51.139Z,2.70
2019-02-10T04:37:22.193Z,2.60
2019-02-10T04:39:53.271Z,2.50
2019-02-10T04:42:24.324Z,2.50
2019-02-10T04:44:56.506Z,2.60
2019-02-10T04:47:27.551Z,2.80
2019-02-10T04:49:58.674Z,2.80
2019-02-10T04:52:29.694Z,3.00
2019-02-10T04:55:01.024Z,3.00
2019-02-10T04:57:32.141Z,3.00
2019-02-10T05:00:03.256Z,2.90
2019-02-10T05:02:34.550Z,2.80
2019-02-10T05:05:05.804Z,2.80
2019-02-10T05:07:36.906Z,2.60
2019-02-10T05:10:09.807Z,2.60
2019-02-10T05:12:40.874Z,2.60
2019-02-10T05:15:12.153Z,2.60
2019-02-10T05:17:43.198Z,2.70
2019-02-10T05:20:14.260Z,2.70
2019-02-10T05:22:45.359Z,2.80
2019-02-10T05:25:16.376Z,2.80
2019-02-10T05:27:48.520Z,2.90
2019-02-10T05:30:19.608Z,3.00
2019-02-10T05:32:50.665Z,2.90
2019-02-10T05:35:21.706Z,2.90
2019-02-10T05:37:52.760Z,2.70
2019-02-10T05:40:23.776Z,2.60
2019-02-10T05:42:54.870Z,2.40
2019-02-10T05:45:27.028Z,2.30
2019-02-10T05:47:58.152Z,2.20
2019-02-10T05:50:29.219Z,2.00
2019-02-10T05:53:00.279Z,1.90
2019-02-10T05:55:31.341Z,1.90
2019-02-10T05:58:02.401Z,1.80
2019-02-10T06:00:33.465Z,1.80
2019-02-10T06:03:04.526Z,1.80
2019-02-10T06:05:35.586Z,1.80
2019-02-10T06:08:13.099Z,1.80
2019-02-10T06:10:39.382Z,1.80
2019-02-10T06:13:10.513Z,1.80
2019-02-10T06:15:41.550Z,1.80
2019-02-10T06:18:12.653Z,1.80
2019-02-10T06:20:43.747Z,1.80
2019-02-10T06:23:14.818Z,1.90
2019-02-10T06:25:45.884Z,1.90
2019-02-10T06:28:16.943Z,1.90
2019-02-10T06:30:48.033Z,1.90
2019-02-10T06:33:19.084Z,1.90
2019-02-10T06:35:50.239Z,1.90
2019-02-10T06:38:22.781Z,1.90
2019-02-10T06:40:54.167Z,1.90
2019-02-10T06:43:25.223Z,2.00
2019-02-10T06:45:56.274Z,2.00
2019-02-10T06:48:27.345Z,2.00
2019-02-10T06:50:58.402Z,2.00
2019-02-10T06:53:29.487Z,2.10
2019-02-10T06:56:00.636Z,2.10
2019-02-10T07:02:04.264Z,2.20
2019-02-10T07:04:35.387Z,2.40
2019-02-10T07:07:06.572Z,2.50
2019-02-10T07:09:37.719Z,2.60
2019-02-10T07:12:44.469Z,2.60
2019-02-10T07:15:51.515Z,2.70
2019-02-10T07:18:59.547Z,2.90
2019-02-10T07:21:47.510Z,3.10
2019-02-10T07:24:41.604Z,3.40
2019-02-10T07:27:27.136Z,3.60
2019-02-10T07:30:44.610Z,3.80
2019-02-10T07:34:07.271Z,4.00
2019-02-10T07:37:38.795Z,4.30
2019-02-10T07:41:06.587Z,4.50
2019-02-10T07:44:24.540Z,4.70
2019-02-10T07:47:42.477Z,4.80
2019-02-10T07:50:36.407Z,5.00
2019-02-10T07:53:53.666Z,5.20
2019-02-10T07:57:20.796Z,5.40
2019-02-10T08:00:27.115Z,5.60
2019-02-10T08:03:48.499Z,5.80
2019-02-10T08:06:37.469Z,5.90
2019-02-10T08:09:48.278Z,6.00
2019-02-10T08:12:54.507Z,6.10
2019-02-10T08:16:20.092Z,6.20
2019-02-10T08:19:14.819Z,6.20
2019-02-10T08:22:27.560Z,6.30
2019-02-10T08:25:36.833Z,6.30
2019-02-10T08:29:07.219Z,6.30
2019-02-10T08:32:00.677Z,6.40
2019-02-10T08:34:42.521Z,6.50
2019-02-10T08:38:01.043Z,6.60
2019-02-10T08:41:01.736Z,6.70
2019-02-10T08:43:52.330Z,6.90
2019-02-10T08:47:09.978Z,7.00
2019-02-10T08:50:14.663Z,7.10
2019-02-10T08:53:08.851Z,7.20
2019-02-10T08:55:40.009Z,7.30
2019-02-10T08:58:11.251Z,7.30
2019-02-10T09:00:42.366Z,7.30
2019-02-10T09:03:19.377Z,7.30
2019-02-10T09:05:47.493Z,7.30
2019-02-10T09:08:18.697Z,7.40
2019-02-10T09:10:50.060Z,7.40
2019-02-10T09:13:21.704Z,7.50
2019-02-10T09:15:52.885Z,7.50
2019-02-10T09:18:24.140Z,7.50
2019-02-10T09:20:55.319Z,7.50
2019-02-10T09:23:26.575Z,7.50
2019-02-10T09:25:57.690Z,7.50
2019-02-10T09:28:28.918Z,7.50
2019-02-10T09:31:00.086Z,7.60
2019-02-10T09:33:31.536Z,7.60
2019-02-10T09:36:02.639Z,7.70
2019-02-10T09:38:33.943Z,7.70
2019-02-10T09:41:05.097Z,7.70
2019-02-10T09:43:36.227Z,7.70
2019-02-10T09:46:07.357Z,7.70
2019-02-10T09:48:38.616Z,7.70
2019-02-10T09:51:09.852Z,7.80
2019-02-10T09:53:41.022Z,7.80
2019-02-10T09:56:12.163Z,7.80
2019-02-10T09:58:43.399Z,7.80
2019-02-10T10:01:14.835Z,7.80
2019-02-10T10:03:46.099Z,7.70
2019-02-10T10:06:17.291Z,7.70
2019-02-10T10:08:50.037Z,7.80
2019-02-10T10:11:21.214Z,7.80
2019-02-10T10:13:52.420Z,7.80
2019-02-10T10:16:23.546Z,7.80
2019-02-10T10:18:54.644Z,7.90
2019-02-10T10:21:25.804Z,8.00
2019-02-10T10:23:56.997Z,8.00
2019-02-10T10:26:28.091Z,8.10
2019-02-10T10:28:59.170Z,8.20
2019-02-10T10:31:30.475Z,8.30
2019-02-10T10:34:01.777Z,8.30
2019-02-10T10:36:32.939Z,8.40
2019-02-10T10:39:05.725Z,8.50
2019-02-10T10:41:37.154Z,8.60
2019-02-10T10:44:08.263Z,8.60
2019-02-10T10:46:39.548Z,8.70
2019-02-10T10:49:11.772Z,8.80
2019-02-10T10:51:43.175Z,8.80
2019-02-10T10:54:14.438Z,8.90
2019-02-10T10:56:45.677Z,9.00
2019-02-10T10:59:16.910Z,9.20
2019-02-10T11:01:48.144Z,9.30
2019-02-10T11:04:19.332Z,9.40
2019-02-10T11:06:50.466Z,9.40
2019-02-10T11:09:21.610Z,9.40
2019-02-10T11:11:52.773Z,9.40
2019-02-10T11:14:23.930Z,9.50
2019-02-10T11:16:54.994Z,9.50
2019-02-10T11:19:26.198Z,9.50
2019-02-10T11:21:57.407Z,9.50
2019-02-10T11:24:28.969Z,9.60
2019-02-10T11:27:01.252Z,9.70
2019-02-10T11:29:32.555Z,9.90
2019-02-10T11:32:04.712Z,10.00
2019-02-10T11:34:36.019Z,10.10
2019-02-10T11:37:07.297Z,10.20
2019-02-10T11:39:43.661Z,10.30
2019-02-10T11:42:11.359Z,10.30
2019-02-10T11:44:42.690Z,10.30
2019-02-10T11:47:13.822Z,10.40
2019-02-10T11:49:45.225Z,10.40
2019-02-10T11:52:17.783Z,10.50
2019-02-10T11:54:49.206Z,10.50
2019-02-10T11:57:20.415Z,10.40
2019-02-10T11:59:51.605Z,10.30
2019-02-10T12:02:22.870Z,10.20
2019-02-10T12:04:54.161Z,10.10
2019-02-10T12:07:25.681Z,10.10
2019-02-10T12:09:56.877Z,10.00
2019-02-10T12:12:27.995Z,9.90
2019-02-10T12:14:59.158Z,9.80
2019-02-10T12:17:30.826Z,9.80
2019-02-10T12:20:02.050Z,9.80
2019-02-10T12:22:33.332Z,9.70
2019-02-10T12:25:04.860Z,9.80
2019-02-10T12:27:36.103Z,9.80
2019-02-10T12:30:09.258Z,9.70
2019-02-10T12:32:40.613Z,9.70
2019-02-10T12:35:11.895Z,9.70
2019-02-10T12:37:43.219Z,9.70
2019-02-10T12:40:15.541Z,9.70
2019-02-10T12:42:46.755Z,9.70
2019-02-10T12:45:17.876Z,9.70
2019-02-10T12:47:49.142Z,9.70
2019-02-10T12:50:20.511Z,9.70
2019-02-10T12:52:51.873Z,9.70
2019-02-10T12:55:23.514Z,9.70
2019-02-10T12:57:54.810Z,9.70
2019-02-10T13:00:26.077Z,9.80
2019-02-10T13:02:57.276Z,9.80
2019-02-10T13:05:28.411Z,9.90
2019-02-10T13:08:06.457Z,9.90
2019-02-10T13:10:37.795Z,9.90
2019-02-10T13:13:09.119Z,9.90
2019-02-10T13:15:40.285Z,9.90
2019-02-10T13:18:11.373Z,9.90
2019-02-10T13:20:42.555Z,9.80
2019-02-10T13:23:13.697Z,9.80
2019-02-10T13:25:44.896Z,9.80
2019-02-10T13:28:16.262Z,9.80
2019-02-10T13:30:47.521Z,9.70
2019-02-10T13:33:18.749Z,9.70
2019-02-10T13:35:49.965Z,9.70
2019-02-10T13:38:21.893Z,9.60
2019-02-10T13:40:53.093Z,9.60
2019-02-10T13:43:24.401Z,9.60
2019-02-10T13:45:55.671Z,9.50
2019-02-10T13:48:26.920Z,9.40
2019-02-10T13:50:58.149Z,9.50
2019-02-10T13:53:29.523Z,9.40
2019-02-10T13:56:00.797Z,9.30
2019-02-10T13:58:32.102Z,9.30
2019-02-10T14:01:03.565Z,9.20
2019-02-10T14:03:34.839Z,9.20
2019-02-10T14:06:07.509Z,9.10
2019-02-10T14:08:38.911Z,9.10
2019-02-10T14:11:11.123Z,9.10
2019-02-10T14:13:42.426Z,9.00
2019-02-10T14:16:13.695Z,9.00
2019-02-10T14:18:44.984Z,8.90
2019-02-10T14:21:16.142Z,8.80
2019-02-10T14:23:47.457Z,8.80
2019-02-10T14:26:18.686Z,8.70
2019-02-10T14:28:50.006Z,8.70
2019-02-10T14:31:21.192Z,8.60
2019-02-10T14:33:52.840Z,8.60
2019-02-10T14:36:23.994Z,8.50
2019-02-10T14:38:56.107Z,8.50
2019-02-10T14:41:27.295Z,8.40
2019-02-10T14:43:58.619Z,8.40
2019-02-10T14:46:29.975Z,8.30
2019-02-10T14:49:01.387Z,8.20
2019-02-10T14:51:32.515Z,8.10
2019-02-10T14:54:03.929Z,8.10
2019-02-10T14:56:35.328Z,8.00
2019-02-10T14:59:06.531Z,7.90
2019-02-10T15:01:37.734Z,7.90
2019-02-10T15:04:09.135Z,7.90
2019-02-10T15:06:40.530Z,7.80
2019-02-10T15:09:11.818Z,7.80
2019-02-10T15:11:43.131Z,7.80
2019-02-10T15:14:14.387Z,7.80
2019-02-10T15:16:45.609Z,7.80
2019-02-10T15:19:16.933Z,7.70
2019-02-10T15:21:48.080Z,7.60
2019-02-10T15:24:19.263Z,7.60
2019-02-10T15:26:50.490Z,7.50
2019-02-10T15:29:21.750Z,7.40
2019-02-10T15:31:52.904Z,7.30
2019-02-10T15:34:24.225Z,7.20
2019-02-10T15:36:55.424Z,7.20
2019-02-10T15:39:28.571Z,7.20
2019-02-10T15:41:59.872Z,7.10
2019-02-10T15:44:31.235Z,7.00
2019-02-10T15:47:02.531Z,7.00
2019-02-10T15:49:33.814Z,7.00
2019-02-10T15:52:04.972Z,7.00
2019-02-10T15:54:36.360Z,7.00
2019-02-10T15:57:07.620Z,6.90
2019-02-10T15:59:38.839Z,6.90
2019-02-10T16:02:09.935Z,7.00
2019-02-10T16:04:41.096Z,6.90
2019-02-10T16:07:12.362Z,6.90
2019-02-10T16:09:43.606Z,6.90
2019-02-10T16:12:14.723Z,6.90
2019-02-10T16:14:46.181Z,6.90
2019-02-10T16:17:17.631Z,6.80
2019-02-10T16:19:48.951Z,6.80
2019-02-10T16:22:22.057Z,6.80
2019-02-10T16:24:53.439Z,6.70
2019-02-10T16:27:24.794Z,6.70
2019-02-10T16:29:56.155Z,6.70
2019-02-10T16:32:27.392Z,6.60
2019-02-10T16:34:58.561Z,6.60
2019-02-10T16:37:29.764Z,6.70
2019-02-10T16:40:01.996Z,6.70
2019-02-10T16:42:33.155Z,6.70
2019-02-10T16:45:04.539Z,6.60
2019-02-10T16:47:36.930Z,6.60
2019-02-10T16:50:09.398Z,6.60
2019-02-10T16:52:41.249Z,6.50
2019-02-10T16:55:13.711Z,6.50
2019-02-10T16:57:46.816Z,6.40
2019-02-10T17:00:19.213Z,6.40
2019-02-10T17:03:03.927Z,6.40
2019-02-10T17:05:46.678Z,6.30
2019-02-10T17:08:24.188Z,6.30
2019-02-10T17:10:55.609Z,6.30
2019-02-10T17:13:27.382Z,6.30
2019-02-10T17:16:04.938Z,6.30
2019-02-10T17:18:31.705Z,6.20
2019-02-10T17:21:02.883Z,6.20
2019-02-10T17:23:34.159Z,6.10
2019-02-10T17:26:05.341Z,6.20
2019-02-10T17:28:36.569Z,6.20
2019-02-10T17:31:07.853Z,6.20
2019-02-10T17:33:39.155Z,6.30
2019-02-10T17:36:10.359Z,6.20
2019-02-10T17:38:41.677Z,6.20
2019-02-10T17:41:32.561Z,6.10
2019-02-10T17:44:03.873Z,6.10
2019-02-10T17:46:37.595Z,6.20
2019-02-10T17:49:08.829Z,6.20
2019-02-10T17:51:40.140Z,6.10
2019-02-10T17:54:15.959Z,6.10
2019-02-10T17:57:06.277Z,6.00
2019-02-10T17:59:40.909Z,5.90
2019-02-10T18:02:12.573Z,5.90
2019-02-10T18:04:45.911Z,5.90
2019-02-10T18:07:32.378Z,5.90
2019-02-10T18:10:12.306Z,5.90
2019-02-10T18:12:46.543Z,5.90
2019-02-10T18:15:40.527Z,5.90
2019-02-10T18:18:56.657Z,6.00
2019-02-10T18:21:56.505Z,5.90
2019-02-10T18:24:59.775Z,5.90
2019-02-10T18:27:59.377Z,6.00
2019-02-10T18:30:56.830Z,6.00
2019-02-10T18:33:58.149Z,6.00
2019-02-10T18:36:36.228Z,6.00
2019-02-10T18:39:30.497Z,6.00
2019-02-10T18:42:52.288Z,6.00
2019-02-10T18:45:43.469Z,6.10
2019-02-10T18:48:40.776Z,6.20
2019-02-10T18:51:49.506Z,6.30
2019-02-10T18:54:35.577Z,6.30
2019-02-10T19:00:55.662Z,6.20
2019-02-10T19:03:32.792Z,6.00
2019-02-10T19:06:41.449Z,5.90
2019-02-10T19:09:47.076Z,5.80
2019-02-10T19:12:46.284Z,5.80
2019-02-10T19:15:41.890Z,5.70
2019-02-10T19:18:25.362Z,5.70
2019-02-10T19:21:37.589Z,5.70
2019-02-10T19:24:47.597Z,5.70
2019-02-10T19:27:31.515Z,5.60
2019-02-10T19:30:49.441Z,5.60
2019-02-10T19:33:45.893Z,5.60
2019-02-10T19:36:51.275Z,5.60
2019-02-10T19:39:39.960Z,5.50
2019-02-10T19:42:20.386Z,5.50
2019-02-10T19:45:09.798Z,5.50
2019-02-10T19:47:59.318Z,5.50
2019-02-10T19:50:54.086Z,5.40
2019-02-10T19:53:40.176Z,5.30
2019-02-10T19:56:30.723Z,5.20
2019-02-10T19:59:36.644Z,5.20
2019-02-10T20:02:15.542Z,5.10
2019-02-10T20:05:02.786Z,5.10
2019-02-10T20:08:11.047Z,5.10
2019-02-10T20:11:14.220Z,5.10
2019-02-10T20:14:10.931Z,5.20
2019-02-10T20:17:07.839Z,5.20
2019-02-10T20:20:10.704Z,5.20
2019-02-10T20:23:04.739Z,5.10
2019-02-10T20:26:02.064Z,5.10
2019-02-10T20:28:56.008Z,5.10
2019-02-10T20:31:52.730Z,5.10
2019-02-10T20:34:42.076Z,5.10
2019-02-10T20:37:22.751Z,5.10
2019-02-10T20:40:13.626Z,5.10
2019-02-10T20:42:59.840Z,5.20
2019-02-10T20:46:05.975Z,5.20
2019-02-10T20:49:03.040Z,5.30
2019-02-10T20:51:52.356Z,5.30
2019-02-10T20:54:32.818Z,5.20
2019-02-10T20:57:10.853Z,5.20
2019-02-10T21:00:01.108Z,5.20
2019-02-10T21:07:23.006Z,5.20
2019-02-10T21:13:54.353Z,5.30
2019-02-10T21:17:18.534Z,5.30
2019-02-10T21:20:11.551Z,5.30
2019-02-10T21:23:00.541Z,5.30
2019-02-10T21:25:52.811Z,5.20
2019-02-10T21:28:43.432Z,5.20
2019-02-10T21:31:32.339Z,5.20
2019-02-10T21:34:37.760Z,5.20
2019-02-10T21:37:22.476Z,5.10
2019-02-10T21:40:12.490Z,5.10
2019-02-10T21:43:02.512Z,5.10
2019-02-10T21:45:51.558Z,5.00
2019-02-10T21:48:28.597Z,5.00
2019-02-10T21:50:59.881Z,5.00
2019-02-10T21:53:31.024Z,5.00
2019-02-10T21:56:15.026Z,4.90
2019-02-10T21:58:46.243Z,4.90
2019-02-10T22:01:17.405Z,5.00
2019-02-10T22:03:48.609Z,5.20
2019-02-10T22:06:19.702Z,5.30
2019-02-10T22:08:50.980Z,5.40
2019-02-10T22:11:22.168Z,5.50
2019-02-10T22:13:53.335Z,5.50
2019-02-10T22:16:24.529Z,5.60
2019-02-10T22:18:55.662Z,5.60
2019-02-10T22:21:26.837Z,5.60
2019-02-10T22:23:58.948Z,5.60
2019-02-10T22:26:30.274Z,5.70
2019-02-10T22:29:01.674Z,5.60
2019-02-10T22:31:32.965Z,5.70
2019-02-10T22:34:04.457Z,5.70
2019-02-10T22:36:35.790Z,5.60
2019-02-10T22:39:15.746Z,5.60
2019-02-10T22:41:47.229Z,5.70
2019-02-10T22:44:18.546Z,5.70
2019-02-10T22:46:49.831Z,5.60
2019-02-10T22:49:21.031Z,5.60
2019-02-10T22:51:52.276Z,5.60
2019-02-10T22:54:23.521Z,5.60
2019-02-10T22:56:54.969Z,5.60
2019-02-10T22:59:26.424Z,5.60
2019-02-10T23:01:58.138Z,5.60
2019-02-10T23:04:29.525Z,5.60
2019-02-10T23:07:01.231Z,5.60
2019-02-10T23:09:32.507Z,5.60
2019-02-10T23:12:04.706Z,5.60
2019-02-10T23:14:35.936Z,5.70
2019-02-10T23:17:07.025Z,5.60
2019-02-10T23:19:38.157Z,5.70
2019-02-10T23:22:09.413Z,5.80
2019-02-10T23:24:41.502Z,5.90
2019-02-10T23:27:13.454Z,6.20
2019-02-10T23:29:45.253Z,6.50
2019-02-10T23:32:18.398Z,6.70
2019-02-10T23:34:50.449Z,6.90
2019-02-10T23:37:21.688Z,7.00
2019-02-10T23:39:52.999Z,7.10
2019-02-10T23:42:24.703Z,7.30
2019-02-10T23:44:55.831Z,7.40
2019-02-10T23:47:26.951Z,7.50
2019-02-10T23:50:10.515Z,7.50
2019-02-10T23:52:44.012Z,7.50
2019-02-10T23:55:23.209Z,7.60
2019-02-10T23:57:54.428Z,7.60
